Time;durP1;ratioP1;P1;durP2;ratioP2;P2;SDS_P1;SDS_P2;PMS_P1;PMS_P2;Temp;Humidity;BMP_temperature;BMP_pressure;BME280_temperature;BME280_humidity;BME280_pressure;Samples;Min_cycle;Max_cycle;Signal;HPM_P1;HPM_P2
2022/09/23 00:02:52;;;;;;;;;;;19.80;42.50;;;;;;8334252;28;19928;-43
2022/09/23 00:06:52;;;;;;;;;;;19.70;42.50;;;;;;8334615;28;19917;-43
2022/09/23 00:10:54;;;;;;;;;;;19.80;42.50;;;;;;8334098;28;19926;-44
2022/09/23 00:14:55;;;;;;;;;;;19.70;42.40;;;;;;8333698;28;20324;-44
2022/09/23 00:18:55;;;;;;;;;;;19.70;42.40;;;;;;8333883;28;19923;-44
2022/09/23 00:22:56;;;;;;;;;;;19.70;42.50;;;;;;8334184;28;19917;-44
2022/09/23 00:26:58;;;;;;;;;;;19.70;42.50;;;;;;8333316;28;19917;-43
2022/09/23 00:31:09;;;;;;;;;;;19.70;42.50;;;;;;8333850;28;20374;-43
2022/09/23 00:35:09;;;;;;;;;;;19.70;42.50;;;;;;8333316;28;19917;-43
2022/09/23 00:39:10;;;;;;;;;;;19.70;42.50;;;;;;8333016;28;19940;-43
2022/09/23 00:43:12;;;;;;;;;;;19.70;42.50;;;;;;8333452;28;20384;-43
2022/09/23 00:47:30;;;;;;;;;;;19.70;42.50;;;;;;8333260;28;19920;-43
2022/09/23 00:51:33;;;;;;;;;;;19.60;42.40;;;;;;8332623;28;19926;-43
2022/09/23 00:55:38;;;;;;;;;;;19.70;42.50;;;;;;8332715;28;19918;-43
2022/09/23 00:59:39;;;;;;;;;;;19.60;42.40;;;;;;8332360;28;19917;-43
2022/09/23 01:03:41;;;;;;;;;;;19.60;42.50;;;;;;8332491;28;20388;-43
2022/09/23 01:07:42;;;;;;;;;;;19.60;42.50;;;;;;8332799;28;19913;-43
2022/09/23 01:11:58;;;;;;;;;;;19.60;43.00;;;;;;8315764;28;20362;-43
2022/09/23 01:16:09;;;;;;;;;;;19.60;42.50;;;;;;8321413;28;20005;-43
2022/09/23 01:20:09;;;;;;;;;;;19.60;42.50;;;;;;8331990;28;20051;-43
2022/09/23 01:24:25;;;;;;;;;;;19.60;42.40;;;;;;8331451;28;19924;-43
2022/09/23 01:28:37;;;;;;;;;;;19.60;42.50;;;;;;8331983;28;19917;-44
2022/09/23 01:32:49;;;;;;;;;;;19.60;42.40;;;;;;8331319;28;20012;-43
2022/09/23 01:36:52;;;;;;;;;;;19.50;42.40;;;;;;8331527;28;19921;-45
2022/09/23 01:40:58;;;;;;;;;;;19.50;42.50;;;;;;8331368;28;19913;-43
2022/09/23 01:45:04;;;;;;;;;;;19.50;42.40;;;;;;8330349;28;19947;-43
2022/09/23 01:49:16;;;;;;;;;;;19.50;42.40;;;;;;8331043;28;19920;-43
2022/09/23 01:53:19;;;;;;;;;;;19.60;42.50;;;;;;8331228;28;19929;-45
2022/09/23 01:57:26;;;;;;;;;;;19.50;42.40;;;;;;8330440;28;20338;-44
2022/09/23 02:01:47;;;;;;;;;;;19.50;42.40;;;;;;8330872;28;20429;-43
2022/09/23 02:05:50;;;;;;;;;;;19.50;42.40;;;;;;8329864;28;20381;-44
2022/09/23 02:09:56;;;;;;;;;;;19.50;42.40;;;;;;8330724;28;19920;-43
2022/09/23 02:14:00;;;;;;;;;;;19.50;42.40;;;;;;8330445;28;19937;-44
2022/09/23 02:18:02;;;;;;;;;;;19.50;42.40;;;;;;8330227;28;20417;-44
2022/09/23 02:22:19;;;;;;;;;;;19.40;42.40;;;;;;8330377;28;19917;-43
2022/09/23 02:26:30;;;;;;;;;;;19.40;42.40;;;;;;8330284;28;19913;-44
2022/09/23 02:30:37;;;;;;;;;;;19.40;42.40;;;;;;8330275;28;20228;-44
2022/09/23 02:34:57;;;;;;;;;;;19.40;42.40;;;;;;8330499;28;19920;-43
2022/09/23 02:39:00;;;;;;;;;;;19.40;42.40;;;;;;8329694;28;19944;-43
2022/09/23 02:43:04;;;;;;;;;;;19.40;42.40;;;;;;8329059;28;19921;-45
2022/09/23 02:47:05;;;;;;;;;;;19.40;42.40;;;;;;8330107;28;19921;-43
2022/09/23 02:51:06;;;;;;;;;;;19.40;42.40;;;;;;8329470;28;19925;-43
2022/09/23 02:55:07;;;;;;;;;;;19.40;42.40;;;;;;8330223;28;19917;-43
2022/09/23 02:59:09;;;;;;;;;;;19.40;42.40;;;;;;8336413;28;19923;-43
2022/09/23 03:03:14;;;;;;;;;;;19.40;42.30;;;;;;8336081;28;19970;-43
2022/09/23 03:07:14;;;;;;;;;;;19.40;42.40;;;;;;8336197;28;19921;-44
2022/09/23 03:11:16;;;;;;;;;;;19.40;42.40;;;;;;8336133;28;19928;-44
2022/09/23 03:15:16;;;;;;;;;;;19.30;42.40;;;;;;8335564;28;19975;-44
2022/09/23 03:19:41;;;;;;;;;;;19.30;42.40;;;;;;8335976;28;19913;-44
2022/09/23 03:23:43;;;;;;;;;;;19.30;42.40;;;;;;8335607;28;20374;-44
2022/09/23 03:27:44;;;;;;;;;;;19.30;42.40;;;;;;8335918;28;19917;-43
2022/09/23 03:31:44;;;;;;;;;;;19.30;42.40;;;;;;8335563;28;20460;-43
2022/09/23 03:40:30;;;;;;;;;;;19.30;42.40;;;;;;8338258;28;19951;-44
2022/09/23 03:44:36;;;;;;;;;;;19.30;42.40;;;;;;8334771;28;19917;-44
2022/09/23 03:48:37;;;;;;;;;;;19.30;42.40;;;;;;8335104;28;19921;-44
2022/09/23 03:52:38;;;;;;;;;;;19.30;42.40;;;;;;8334718;28;19925;-44
2022/09/23 03:56:39;;;;;;;;;;;19.30;42.40;;;;;;8334384;28;19913;-44
2022/09/23 04:00:39;;;;;;;;;;;19.30;42.40;;;;;;8334459;28;19913;-43
2022/09/23 04:04:40;;;;;;;;;;;19.20;42.40;;;;;;8334359;28;20282;-43
2022/09/23 04:08:40;;;;;;;;;;;19.20;42.40;;;;;;8317833;28;20363;-44
2022/09/23 04:12:41;;;;;;;;;;;19.30;42.40;;;;;;8327452;28;20425;-44
2022/09/23 04:16:41;;;;;;;;;;;19.30;42.40;;;;;;8334149;28;20001;-44
2022/09/23 04:20:42;;;;;;;;;;;19.30;42.40;;;;;;8333479;28;20366;-44
2022/09/23 04:24:42;;;;;;;;;;;19.20;42.40;;;;;;8333804;28;19940;-43
2022/09/23 04:28:43;;;;;;;;;;;19.20;42.40;;;;;;8334166;28;20417;-44
2022/09/23 04:32:43;;;;;;;;;;;19.20;42.40;;;;;;8335040;28;19967;-43
2022/09/23 04:36:45;;;;;;;;;;;19.20;42.40;;;;;;8350199;28;19928;-43
2022/09/23 04:40:45;;;;;;;;;;;19.20;42.40;;;;;;8333436;28;20281;-44
2022/09/23 04:44:45;;;;;;;;;;;19.20;42.40;;;;;;8333413;28;20008;-43
2022/09/23 04:48:46;;;;;;;;;;;19.20;42.40;;;;;;8333076;28;19921;-44
2022/09/23 04:52:46;;;;;;;;;;;19.20;42.40;;;;;;8332941;28;19936;-43
2022/09/23 04:56:47;;;;;;;;;;;19.20;42.40;;;;;;8332479;28;19917;-43
2022/09/23 05:00:47;;;;;;;;;;;19.20;42.40;;;;;;8332618;28;20009;-44
2022/09/23 05:04:48;;;;;;;;;;;19.20;42.40;;;;;;8332999;28;20263;-43
2022/09/23 05:08:49;;;;;;;;;;;19.20;42.40;;;;;;8332038;28;19996;-43
2022/09/23 05:12:50;;;;;;;;;;;19.20;42.40;;;;;;8332220;28;19925;-43
2022/09/23 05:16:50;;;;;;;;;;;19.20;42.40;;;;;;8332143;28;19937;-43
2022/09/23 05:20:54;;;;;;;;;;;19.10;42.30;;;;;;8329470;28;19917;-44
2022/09/23 05:24:54;;;;;;;;;;;19.10;42.30;;;;;;8332366;28;19921;-43
2022/09/23 05:28:55;;;;;;;;;;;19.10;42.30;;;;;;8331754;28;19924;-44
2022/09/23 05:32:56;;;;;;;;;;;19.10;42.40;;;;;;8331207;28;19925;-43
2022/09/23 05:36:57;;;;;;;;;;;19.10;42.40;;;;;;8331362;28;20011;-43
2022/09/23 05:40:58;;;;;;;;;;;19.10;42.30;;;;;;8331263;28;19945;-43
2022/09/23 05:44:58;;;;;;;;;;;19.10;42.30;;;;;;8330821;28;19967;-44
2022/09/23 05:48:59;;;;;;;;;;;19.10;42.30;;;;;;8330822;28;19921;-44
2022/09/23 05:52:59;;;;;;;;;;;19.10;42.30;;;;;;8330718;28;19933;-43
2022/09/23 05:57:00;;;;;;;;;;;19.10;42.30;;;;;;8330363;28;19917;-44
2022/09/23 06:01:07;;;;;;;;;;;19.10;42.30;;;;;;8330596;28;19924;-45
2022/09/23 06:05:07;;;;;;;;;;;19.10;42.30;;;;;;8330935;28;20275;-44
2022/09/23 06:09:12;;;;;;;;;;;19.10;42.30;;;;;;8329957;28;19917;-44
2022/09/23 06:13:14;;;;;;;;;;;19.10;42.30;;;;;;8330301;28;20397;-44
2022/09/23 06:17:15;;;;;;;;;;;19.10;42.30;;;;;;8330437;28;20278;-44
2022/09/23 06:21:16;;;;;;;;;;;19.10;42.20;;;;;;8329912;28;19917;-44
2022/09/23 06:25:18;;;;;;;;;;;19.30;42.00;;;;;;8330296;28;19913;-44
2022/09/23 06:29:19;;;;;;;;;;;19.40;41.80;;;;;;8329963;28;20385;-44
2022/09/23 06:33:19;;;;;;;;;;;19.40;41.70;;;;;;8329446;28;19932;-44
2022/09/23 06:37:20;;;;;;;;;;;19.40;41.70;;;;;;8329669;28;20342;-45
2022/09/23 06:41:20;;;;;;;;;;;19.30;41.80;;;;;;8329903;28;19917;-44
2022/09/23 06:45:21;;;;;;;;;;;19.30;41.90;;;;;;8329507;28;19944;-46
2022/09/23 06:49:21;;;;;;;;;;;19.30;42.00;;;;;;8329605;28;19925;-44
2022/09/23 06:53:22;;;;;;;;;;;19.20;42.00;;;;;;8329589;28;19948;-44
2022/09/23 06:57:23;;;;;;;;;;;19.20;42.00;;;;;;8328685;28;19917;-44
2022/09/23 07:01:23;;;;;;;;;;;19.20;42.00;;;;;;8329789;28;19917;-44
2022/09/23 07:05:24;;;;;;;;;;;19.20;42.00;;;;;;8329883;28;19913;-44
2022/09/23 07:09:24;;;;;;;;;;;19.20;42.10;;;;;;8329112;28;20020;-44
2022/09/23 07:13:25;;;;;;;;;;;19.20;42.10;;;;;;8328465;28;20348;-44
2022/09/23 07:17:26;;;;;;;;;;;19.20;42.10;;;;;;8329038;28;20413;-43
2022/09/23 07:21:26;;;;;;;;;;;19.20;42.20;;;;;;8329374;28;20394;-44
2022/09/23 07:25:28;;;;;;;;;;;19.20;42.20;;;;;;8329608;28;20329;-44
2022/09/23 07:29:28;;;;;;;;;;;19.20;42.20;;;;;;8328981;28;19928;-44
2022/09/23 07:33:30;;;;;;;;;;;19.20;42.10;;;;;;8329046;28;19932;-43
2022/09/23 07:37:31;;;;;;;;;;;19.20;42.20;;;;;;8329013;28;19925;-44
2022/09/23 07:41:31;;;;;;;;;;;19.20;42.20;;;;;;8329632;28;19972;-45
2022/09/23 07:45:33;;;;;;;;;;;19.20;42.20;;;;;;8335462;28;19940;-44
2022/09/23 07:49:34;;;;;;;;;;;19.20;42.20;;;;;;8334908;28;19928;-46
2022/09/23 07:53:35;;;;;;;;;;;19.20;42.20;;;;;;8334305;28;19925;-44
2022/09/23 07:57:36;;;;;;;;;;;19.20;42.20;;;;;;8334933;28;20344;-44
2022/09/23 08:01:38;;;;;;;;;;;19.20;42.30;;;;;;8334381;28;19959;-45
2022/09/23 08:05:38;;;;;;;;;;;19.20;42.30;;;;;;8334243;28;19920;-44
2022/09/23 08:09:40;;;;;;;;;;;19.20;42.30;;;;;;8334229;28;19928;-45
2022/09/23 08:13:41;;;;;;;;;;;19.20;42.30;;;;;;8334250;28;20004;-44
2022/09/23 08:17:42;;;;;;;;;;;19.30;42.30;;;;;;8333782;28;20374;-44
2022/09/23 08:21:46;;;;;;;;;;;19.20;42.30;;;;;;8334017;28;20023;-44
2022/09/23 08:25:46;;;;;;;;;;;19.30;42.30;;;;;;8334074;28;20380;-44
2022/09/23 08:29:47;;;;;;;;;;;19.30;42.30;;;;;;8333077;28;19921;-44
2022/09/23 08:33:52;;;;;;;;;;;19.30;42.30;;;;;;8333566;28;19967;-44
2022/09/23 08:37:52;;;;;;;;;;;19.30;42.30;;;;;;8333224;28;20267;-44
2022/09/23 08:41:53;;;;;;;;;;;19.30;42.30;;;;;;8331484;28;20003;-43
2022/09/23 08:45:54;;;;;;;;;;;19.30;42.30;;;;;;8333278;28;20390;-44
2022/09/23 08:49:59;;;;;;;;;;;19.30;42.30;;;;;;8332834;28;19917;-44
2022/09/23 08:53:59;;;;;;;;;;;19.30;42.30;;;;;;8331004;28;19964;-43
2022/09/23 08:58:20;;;;;;;;;;;19.30;42.30;;;;;;8332786;28;19928;-45
2022/09/23 09:02:21;;;;;;;;;;;19.30;42.30;;;;;;8332501;28;20392;-45
2022/09/23 09:06:53;;;;;;;;;;;19.40;42.30;;;;;;8332306;28;19913;-43
2022/09/23 09:10:54;;;;;;;;;;;19.40;42.30;;;;;;8299163;28;19925;-45
2022/09/23 09:15:01;;;;;;;;;;;19.40;42.30;;;;;;8331640;28;19924;-43
2022/09/23 09:19:02;;;;;;;;;;;19.40;42.40;;;;;;8332007;28;19921;-44
2022/09/23 09:23:32;;;;;;;;;;;19.40;42.40;;;;;;8331885;28;19917;-44
2022/09/23 09:27:34;;;;;;;;;;;19.40;42.30;;;;;;8318667;28;19968;-44
2022/09/23 09:31:40;;;;;;;;;;;19.40;42.30;;;;;;8331674;28;19928;-44
2022/09/23 09:35:53;;;;;;;;;;;19.50;42.40;;;;;;8331093;28;19929;-44
2022/09/23 09:39:54;;;;;;;;;;;19.50;42.40;;;;;;8331365;28;19917;-44
2022/09/23 09:43:58;;;;;;;;;;;19.50;42.40;;;;;;8331252;28;19917;-44
2022/09/23 09:48:02;;;;;;;;;;;19.50;42.40;;;;;;8330593;28;19953;-43
2022/09/23 09:52:13;;;;;;;;;;;19.50;42.40;;;;;;8331090;28;19932;-44
2022/09/23 09:56:17;;;;;;;;;;;19.50;42.40;;;;;;8331276;28;19924;-43
2022/09/23 10:00:32;;;;;;;;;;;19.50;42.40;;;;;;8330399;28;19924;-43
2022/09/23 10:04:34;;;;;;;;;;;19.50;42.40;;;;;;8330322;28;19917;-44
2022/09/23 10:08:36;;;;;;;;;;;19.60;42.40;;;;;;8329957;28;19917;-43
2022/09/23 10:12:45;;;;;;;;;;;19.60;42.40;;;;;;8329709;28;20382;-43
2022/09/23 10:17:00;;;;;;;;;;;19.60;42.40;;;;;;8330742;28;19917;-43
2022/09/23 10:21:13;;;;;;;;;;;19.60;42.40;;;;;;8330274;28;20290;-45
2022/09/23 10:25:20;;;;;;;;;;;19.60;42.40;;;;;;8330201;28;19963;-44
2022/09/23 10:29:28;;;;;;;;;;;19.60;42.40;;;;;;8330125;28;19925;-43
2022/09/23 10:33:30;;;;;;;;;;;19.70;42.50;;;;;;8329846;28;19948;-44
2022/09/23 10:37:36;;;;;;;;;;;19.70;42.50;;;;;;8330271;28;20055;-44
2022/09/23 10:50:30;;;;;;;;;;;19.70;42.40;;;;;;8329966;28;20294;-43
2022/09/23 10:54:38;;;;;;;;;;;19.80;42.50;;;;;;8329741;28;19932;-45
2022/09/23 10:59:05;;;;;;;;;;;19.80;42.50;;;;;;8329751;28;20349;-43
2022/09/23 11:03:20;;;;;;;;;;;19.80;42.50;;;;;;8329213;28;19999;-44
2022/09/23 11:07:43;;;;;;;;;;;19.80;42.40;;;;;;8329688;28;19924;-43
2022/09/23 11:11:50;;;;;;;;;;;19.80;42.40;;;;;;8329402;28;19936;-45
2022/09/23 11:15:53;;;;;;;;;;;19.80;42.50;;;;;;8329791;28;20369;-43
2022/09/23 11:20:12;;;;;;;;;;;19.90;42.50;;;;;;8335688;28;19923;-43
2022/09/23 11:24:16;;;;;;;;;;;19.90;42.50;;;;;;8335090;28;19949;-44
2022/09/23 11:28:33;;;;;;;;;;;19.90;42.40;;;;;;8335763;28;19952;-43
2022/09/23 11:32:43;;;;;;;;;;;19.90;42.50;;;;;;8335003;28;19929;-44
2022/09/23 11:36:48;;;;;;;;;;;20.00;42.50;;;;;;8335495;28;20062;-45
2022/09/23 11:40:53;;;;;;;;;;;20.00;42.50;;;;;;8335293;28;19953;-46
2022/09/23 11:44:58;;;;;;;;;;;20.00;42.40;;;;;;8334603;28;19921;-44
2022/09/23 11:49:00;;;;;;;;;;;20.00;42.40;;;;;;8334494;28;21220;-46
2022/09/23 11:53:08;;;;;;;;;;;20.00;42.40;;;;;;8334580;28;19925;-45
2022/09/23 11:57:11;;;;;;;;;;;20.00;42.50;;;;;;8334515;28;19924;-44
2022/09/23 12:01:28;;;;;;;;;;;20.10;42.50;;;;;;8334514;28;20385;-45
2022/09/23 12:05:34;;;;;;;;;;;20.10;42.50;;;;;;8334163;28;19917;-44
2022/09/23 12:09:38;;;;;;;;;;;20.10;42.40;;;;;;8334627;28;19924;-44
2022/09/23 12:13:38;;;;;;;;;;;20.10;42.40;;;;;;8334232;28;19939;-44
2022/09/23 12:17:45;;;;;;;;;;;20.10;42.40;;;;;;8333890;28;19917;-45
2022/09/23 12:21:51;;;;;;;;;;;20.20;42.40;;;;;;8333903;28;19921;-44
2022/09/23 12:25:55;;;;;;;;;;;20.20;42.40;;;;;;8333874;28;19948;-46
2022/09/23 12:29:58;;;;;;;;;;;20.20;42.40;;;;;;8330293;28;19917;-45
2022/09/23 12:33:59;;;;;;;;;;;20.20;42.30;;;;;;8324391;28;19926;-44
2022/09/23 12:38:00;;;;;;;;;;;20.20;42.30;;;;;;8322928;28;19955;-43
2022/09/23 12:42:02;;;;;;;;;;;20.30;42.40;;;;;;8331610;28;19937;-44
2022/09/23 12:46:19;;;;;;;;;;;20.30;42.40;;;;;;8332624;28;19921;-44
2022/09/23 12:50:38;;;;;;;;;;;20.30;42.40;;;;;;8318691;28;19944;-43
2022/09/23 12:54:40;;;;;;;;;;;20.30;42.30;;;;;;8313883;28;19925;-44
2022/09/23 12:58:40;;;;;;;;;;;20.30;42.30;;;;;;8319651;28;20316;-44
2022/09/23 13:02:42;;;;;;;;;;;20.30;42.30;;;;;;8325022;28;19964;-45
2022/09/23 13:06:45;;;;;;;;;;;20.30;42.30;;;;;;8323177;28;19970;-43
2022/09/23 13:10:48;;;;;;;;;;;20.30;42.40;;;;;;8311542;28;20448;-42
2022/09/23 13:14:50;;;;;;;;;;;20.40;42.40;;;;;;8322847;28;20673;-42
2022/09/23 13:18:53;;;;;;;;;;;20.40;42.40;;;;;;8316768;28;20282;-44
2022/09/23 13:22:53;;;;;;;;;;;20.40;42.40;;;;;;8319402;28;19952;-43
2022/09/23 13:26:56;;;;;;;;;;;20.40;42.30;;;;;;8304174;28;20285;-43
2022/09/23 13:30:57;;;;;;;;;;;20.40;43.60;;;;;;8307700;28;19928;-44
2022/09/23 13:35:00;;;;;;;;;;;20.40;43.00;;;;;;8326878;28;19928;-42
2022/09/23 13:39:21;;;;;;;;;;;20.40;42.80;;;;;;8319597;28;19925;-42
2022/09/23 13:43:24;;;;;;;;;;;20.50;42.70;;;;;;8305949;28;19921;-42
2022/09/23 13:47:26;;;;;;;;;;;20.50;42.70;;;;;;8318955;28;20917;-42
2022/09/23 13:51:32;;;;;;;;;;;20.50;42.70;;;;;;8303860;28;19932;-43
2022/09/23 13:55:37;;;;;;;;;;;20.50;42.60;;;;;;8310207;28;19971;-43
2022/09/23 13:59:40;;;;;;;;;;;20.50;42.60;;;;;;8314275;28;19921;-43
2022/09/23 14:03:42;;;;;;;;;;;20.50;42.60;;;;;;8305544;28;19921;-43
2022/09/23 14:07:43;;;;;;;;;;;20.50;42.50;;;;;;8333887;28;20025;-43
2022/09/23 14:11:43;;;;;;;;;;;20.50;42.50;;;;;;8301109;28;19925;-45
2022/09/23 14:15:45;;;;;;;;;;;20.50;42.50;;;;;;8317566;28;20035;-43
2022/09/23 14:19:45;;;;;;;;;;;20.50;42.60;;;;;;8321179;28;20032;-43
2022/09/23 14:23:46;;;;;;;;;;;20.50;42.50;;;;;;8324773;28;20307;-44
2022/09/23 14:27:46;;;;;;;;;;;20.50;42.50;;;;;;8308902;28;20004;-44
2022/09/23 14:31:59;;;;;;;;;;;20.50;42.60;;;;;;8312189;28;20301;-43
2022/09/23 14:36:06;;;;;;;;;;;20.50;42.60;;;;;;8301634;28;19928;-43
2022/09/23 14:40:15;;;;;;;;;;;20.50;42.60;;;;;;8303474;28;19961;-43
2022/09/23 14:44:20;;;;;;;;;;;20.50;42.60;;;;;;8309433;28;20095;-44
2022/09/23 14:48:22;;;;;;;;;;;20.50;42.60;;;;;;8319024;28;20267;-43
2022/09/23 14:52:23;;;;;;;;;;;20.50;42.60;;;;;;8311207;28;19933;-44
2022/09/23 14:56:24;;;;;;;;;;;20.60;42.60;;;;;;8313973;28;20397;-43
2022/09/23 15:00:24;;;;;;;;;;;20.50;42.50;;;;;;8326082;28;19917;-44
2022/09/23 15:04:26;;;;;;;;;;;20.60;42.60;;;;;;8322764;28;20374;-43
2022/09/23 15:08:26;;;;;;;;;;;20.50;42.50;;;;;;8319826;28;20435;-44
2022/09/23 15:12:27;;;;;;;;;;;20.50;42.50;;;;;;8333610;28;19929;-43
2022/09/23 15:16:28;;;;;;;;;;;20.50;42.50;;;;;;8326170;28;19921;-43
2022/09/23 15:20:30;;;;;;;;;;;20.60;42.60;;;;;;8315053;28;19917;-43
2022/09/23 15:24:32;;;;;;;;;;;20.60;42.60;;;;;;8307390;28;19996;-43
2022/09/23 15:28:33;;;;;;;;;;;20.60;42.60;;;;;;8316635;28;19924;-43
2022/09/23 15:32:33;;;;;;;;;;;20.60;42.60;;;;;;8315324;28;19925;-43
2022/09/23 15:36:34;;;;;;;;;;;20.60;42.60;;;;;;8307752;28;19967;-44
2022/09/23 15:40:35;;;;;;;;;;;20.50;42.60;;;;;;8334439;28;20321;-44
2022/09/23 15:44:36;;;;;;;;;;;20.50;42.60;;;;;;8323592;28;19927;-42
2022/09/23 15:48:42;;;;;;;;;;;20.50;42.60;;;;;;8318493;28;19978;-45
2022/09/23 15:52:45;;;;;;;;;;;20.60;42.70;;;;;;8302466;28;20400;-43
2022/09/23 15:56:46;;;;;;;;;;;20.60;42.60;;;;;;8314948;28;19925;-43
2022/09/23 16:00:49;;;;;;;;;;;20.50;42.60;;;;;;8320068;28;20389;-43
2022/09/23 16:04:51;;;;;;;;;;;20.50;42.60;;;;;;8334117;28;20382;-43
2022/09/23 16:08:51;;;;;;;;;;;20.60;42.60;;;;;;8332657;28;19996;-44
2022/09/23 16:12:53;;;;;;;;;;;20.60;42.60;;;;;;8334057;28;19925;-43
2022/09/23 16:16:53;;;;;;;;;;;20.60;42.70;;;;;;8334080;28;19930;-43
2022/09/23 16:20:54;;;;;;;;;;;20.50;42.60;;;;;;8333727;28;19988;-43
2022/09/23 16:24:54;;;;;;;;;;;20.50;42.70;;;;;;8333961;28;20286;-43
2022/09/23 16:28:56;;;;;;;;;;;20.60;42.80;;;;;;8334043;28;19999;-43
2022/09/23 16:32:56;;;;;;;;;;;20.50;42.80;;;;;;8333325;28;19925;-43
2022/09/23 16:36:57;;;;;;;;;;;20.50;42.80;;;;;;8333405;28;20047;-44
2022/09/23 16:40:59;;;;;;;;;;;20.50;42.80;;;;;;8333504;28;20330;-44
2022/09/23 16:44:59;;;;;;;;;;;20.50;42.90;;;;;;8332878;28;20278;-43
2022/09/23 16:49:00;;;;;;;;;;;20.60;42.90;;;;;;8333327;28;19924;-43
2022/09/23 16:53:00;;;;;;;;;;;20.50;42.90;;;;;;8333011;28;19929;-43
2022/09/23 16:57:01;;;;;;;;;;;20.50;42.90;;;;;;8332677;28;19925;-44
2022/09/23 17:05:21;;;;;;;;;;;20.50;42.90;;;;;;8332722;28;20393;-43
2022/09/23 17:09:23;;;;;;;;;;;20.50;42.90;;;;;;8330958;28;19913;-44
2022/09/23 17:13:24;;;;;;;;;;;20.50;43.00;;;;;;8332145;28;19960;-43
2022/09/23 17:17:27;;;;;;;;;;;20.60;43.00;;;;;;8331707;28;19920;-43
2022/09/23 17:21:27;;;;;;;;;;;20.50;42.90;;;;;;8332073;28;20286;-43
2022/09/23 17:25:28;;;;;;;;;;;20.50;43.00;;;;;;8332205;28;20020;-43
2022/09/23 17:29:29;;;;;;;;;;;20.50;43.00;;;;;;8331591;28;19917;-43
2022/09/23 17:33:30;;;;;;;;;;;20.50;43.00;;;;;;8331412;28;20382;-44
2022/09/23 17:37:31;;;;;;;;;;;20.50;43.00;;;;;;8331524;28;20036;-44
2022/09/23 17:41:32;;;;;;;;;;;20.50;43.00;;;;;;8331022;28;20365;-44
2022/09/23 17:45:35;;;;;;;;;;;20.50;43.00;;;;;;8331388;28;19920;-43
2022/09/23 17:49:36;;;;;;;;;;;20.60;43.10;;;;;;8331687;28;20271;-43
2022/09/23 17:53:37;;;;;;;;;;;20.50;43.00;;;;;;8330687;28;19925;-44
2022/09/23 17:57:38;;;;;;;;;;;20.50;43.00;;;;;;8331214;28;19963;-43
2022/09/23 18:01:38;;;;;;;;;;;20.50;43.10;;;;;;8330884;28;19917;-43
2022/09/23 18:05:38;;;;;;;;;;;20.50;43.00;;;;;;8330427;28;19917;-44
2022/09/23 18:09:39;;;;;;;;;;;20.50;43.00;;;;;;8330969;28;19913;-43
2022/09/23 18:13:39;;;;;;;;;;;20.50;43.00;;;;;;8330447;28;19999;-43
2022/09/23 18:17:40;;;;;;;;;;;20.50;43.10;;;;;;8330195;28;19913;-44
2022/09/23 18:21:42;;;;;;;;;;;20.50;43.10;;;;;;8330596;28;19917;-43
2022/09/23 18:25:42;;;;;;;;;;;20.60;43.20;;;;;;8330312;28;20346;-44
2022/09/23 18:29:42;;;;;;;;;;;20.50;43.10;;;;;;8330158;28;19917;-43
2022/09/23 18:33:47;;;;;;;;;;;20.60;43.20;;;;;;8330137;28;19933;-43
2022/09/23 18:37:49;;;;;;;;;;;20.50;43.20;;;;;;8330074;28;20003;-43
2022/09/23 18:41:49;;;;;;;;;;;20.60;43.10;;;;;;8329640;28;19924;-43
2022/09/23 18:45:54;;;;;;;;;;;20.60;43.20;;;;;;8330369;28;20282;-43
2022/09/23 18:54:14;;;;;;;;;;;20.60;43.20;;;;;;8329973;28;19933;-44
2022/09/23 18:58:15;;;;;;;;;;;20.60;43.20;;;;;;8329907;28;19927;-43
2022/09/23 19:02:15;;;;;;;;;;;20.50;43.20;;;;;;8325540;28;19918;-43
2022/09/23 19:06:16;;;;;;;;;;;20.50;43.10;;;;;;8302786;28;19983;-43
2022/09/23 19:10:18;;;;;;;;;;;20.50;43.20;;;;;;8329822;28;19996;-43
2022/09/23 19:14:18;;;;;;;;;;;20.50;43.10;;;;;;8329655;28;19956;-43
2022/09/23 19:18:19;;;;;;;;;;;20.60;43.20;;;;;;8329211;28;19952;-43
2022/09/23 19:22:20;;;;;;;;;;;20.50;43.10;;;;;;8329654;28;19914;-42
2022/09/23 19:26:22;;;;;;;;;;;20.60;43.20;;;;;;8329602;28;19924;-42
2022/09/23 19:30:23;;;;;;;;;;;20.50;43.20;;;;;;8329241;28;19921;-43
2022/09/23 19:34:27;;;;;;;;;;;20.60;43.20;;;;;;8329442;28;20270;-42
2022/09/23 19:38:28;;;;;;;;;;;20.50;43.20;;;;;;8331165;28;19975;-43
2022/09/23 19:42:28;;;;;;;;;;;20.50;43.20;;;;;;8335173;28;19963;-43
2022/09/23 19:46:29;;;;;;;;;;;20.50;43.20;;;;;;8335327;28;19939;-43
2022/09/23 19:50:33;;;;;;;;;;;20.60;43.20;;;;;;8334903;28;19920;-44
2022/09/23 19:54:33;;;;;;;;;;;20.50;43.30;;;;;;8335006;28;19925;-44
2022/09/23 19:58:34;;;;;;;;;;;20.50;43.30;;;;;;8334692;28;19924;-42
2022/09/23 20:02:35;;;;;;;;;;;20.50;43.30;;;;;;8334278;28;19968;-43
2022/09/23 20:06:38;;;;;;;;;;;20.50;43.30;;;;;;8334559;28;19947;-43
2022/09/23 20:10:38;;;;;;;;;;;20.50;43.30;;;;;;8334660;28;20366;-42
2022/09/23 20:14:39;;;;;;;;;;;20.50;43.30;;;;;;8332544;28;19936;-43
2022/09/23 20:18:40;;;;;;;;;;;20.50;43.20;;;;;;8334349;28;20362;-43
2022/09/23 20:22:40;;;;;;;;;;;20.50;43.30;;;;;;8333916;28;20370;-43
2022/09/23 20:31:00;;;;;;;;;;;20.50;43.40;;;;;;8334518;28;19919;-43
2022/09/23 20:35:00;;;;;;;;;;;20.50;43.40;;;;;;8333631;28;20275;-44
2022/09/23 20:39:04;;;;;;;;;;;20.50;43.40;;;;;;8333042;28;19921;-43
2022/09/23 20:43:05;;;;;;;;;;;20.50;43.40;;;;;;8333633;28;19917;-43
2022/09/23 20:47:06;;;;;;;;;;;20.50;43.40;;;;;;8333324;28;19924;-43
2022/09/23 20:51:07;;;;;;;;;;;20.50;43.50;;;;;;8332673;28;19952;-45
2022/09/23 20:55:07;;;;;;;;;;;20.50;43.40;;;;;;8332949;28;19922;-43
2022/09/23 20:59:08;;;;;;;;;;;20.50;43.40;;;;;;8332850;28;19921;-45
2022/09/23 21:03:11;;;;;;;;;;;20.50;43.40;;;;;;8332323;28;19921;-43
2022/09/23 21:07:12;;;;;;;;;;;20.50;43.50;;;;;;8332093;28;19917;-43
2022/09/23 21:11:13;;;;;;;;;;;20.50;43.40;;;;;;8332919;28;19917;-43
2022/09/23 21:15:14;;;;;;;;;;;20.50;43.40;;;;;;8330688;28;20017;-43
2022/09/23 21:19:14;;;;;;;;;;;20.50;43.40;;;;;;8332205;28;19921;-44
2022/09/23 21:23:15;;;;;;;;;;;20.50;43.40;;;;;;8332053;28;20325;-45
2022/09/23 21:27:15;;;;;;;;;;;20.50;43.40;;;;;;8331502;28;19921;-45
2022/09/23 21:31:24;;;;;;;;;;;20.50;43.40;;;;;;8332333;28;19967;-46
2022/09/23 21:35:24;;;;;;;;;;;20.50;43.40;;;;;;8331514;28;19924;-44
2022/09/23 21:39:25;;;;;;;;;;;20.50;43.40;;;;;;8331073;28;19917;-43
2022/09/23 21:43:26;;;;;;;;;;;20.50;43.40;;;;;;8331548;28;20432;-42
2022/09/23 21:47:30;;;;;;;;;;;20.50;43.40;;;;;;8330906;28;19997;-43
2022/09/23 21:51:34;;;;;;;;;;;20.50;43.50;;;;;;8331783;28;19917;-43
2022/09/23 21:55:34;;;;;;;;;;;20.50;43.50;;;;;;8331231;28;19917;-43
2022/09/23 21:59:35;;;;;;;;;;;20.50;43.60;;;;;;8330051;28;19924;-44
2022/09/23 22:03:35;;;;;;;;;;;20.50;43.50;;;;;;8358213;28;19921;-44
2022/09/23 22:07:36;;;;;;;;;;;20.50;43.50;;;;;;8363733;28;20297;-44
2022/09/23 22:16:00;;;;;;;;;;;20.40;43.50;;;;;;8331762;28;20436;-45
2022/09/23 22:20:01;;;;;;;;;;;20.40;43.50;;;;;;8330528;28;20016;-44
2022/09/23 22:24:02;;;;;;;;;;;20.50;43.60;;;;;;8329866;28;19917;-44
2022/09/23 22:32:40;;;;;;;;;;;20.50;43.70;;;;;;8330160;28;20017;-43
2022/09/23 22:36:40;;;;;;;;;;;20.40;43.60;;;;;;8297685;28;19925;-43
2022/09/23 22:40:41;;;;;;;;;;;20.40;43.70;;;;;;8297315;28;20016;-43
2022/09/23 22:44:42;;;;;;;;;;;20.40;43.60;;;;;;8296896;28;19921;-44
2022/09/23 22:48:43;;;;;;;;;;;20.40;43.60;;;;;;8297364;28;19917;-43
2022/09/23 22:52:43;;;;;;;;;;;20.40;43.60;;;;;;8297336;28;19921;-43
2022/09/23 22:56:44;;;;;;;;;;;20.40;43.70;;;;;;8297197;28;19917;-43
2022/09/23 23:00:45;;;;;;;;;;;20.40;43.70;;;;;;8297229;28;19987;-44
2022/09/23 23:04:46;;;;;;;;;;;20.40;43.70;;;;;;8297401;28;20282;-43
2022/09/23 23:08:46;;;;;;;;;;;20.40;43.70;;;;;;8296772;28;20274;-42
2022/09/23 23:12:48;;;;;;;;;;;20.40;43.80;;;;;;8298573;28;19928;-43
2022/09/23 23:16:48;;;;;;;;;;;20.40;43.70;;;;;;8303925;28;20337;-45
2022/09/23 23:20:48;;;;;;;;;;;20.40;43.80;;;;;;8302818;28;19918;-43
2022/09/23 23:24:49;;;;;;;;;;;20.30;43.70;;;;;;8303356;28;20271;-43
2022/09/23 23:28:50;;;;;;;;;;;20.40;43.90;;;;;;8303174;28;19920;-42
2022/09/23 23:32:51;;;;;;;;;;;20.30;43.80;;;;;;8302349;28;20398;-43
2022/09/23 23:36:53;;;;;;;;;;;20.30;43.80;;;;;;8303035;28;20008;-44
2022/09/23 23:40:55;;;;;;;;;;;20.30;43.80;;;;;;8302717;28;19940;-43
2022/09/23 23:44:55;;;;;;;;;;;20.30;43.90;;;;;;8302121;28;20208;-44
2022/09/23 23:48:56;;;;;;;;;;;20.40;43.90;;;;;;8302707;28;19918;-43
2022/09/23 23:52:56;;;;;;;;;;;20.30;43.80;;;;;;8302350;28;19921;-43
2022/09/23 23:56:57;;;;;;;;;;;20.30;43.90;;;;;;8302085;28;20000;-43
